PROFILE

 METAR AND TAF INFORMATION
ADDS - METARS form results

(0030 UTC 27 May 2019)
http://aviationweather.gov/metar/data/
 
KEGE 262356Z 27016G21KT 10SM OVC100 17/M01 A2996 RMK AO2 WSHFT 2243 LTG DSNT E SLP123 T01671006 10244 20167 53025
KEGE 262330Z 2700/2724 25012G22KT P6SM VCSH FEW045 BKN090 OVC110 TEMPO 2700/2703 VRB20G35KT -SHRA BKN060 FM270300 15005KT P6SM SCT060 BKN100 FM271000 00000KT P6SM FEW080 SCT180 FM271700 VRB04KT P6SM VCSH SCT080 BKN100 FM272100 23009KT P6SM VCSH SCT060 BKN090 

 AIRPORT MAP

 RUNWAY INFORMATION
Runway 07 Runway length 9000 ft Runway width 150 ft
Runway elevation 6461 ft Runway displaced threshold 0 ft Runway heading 82
Runway 25 Runway length 9000 ft Runway width 150 ft
Runway elevation 6547 ft Runway displaced threshold 1000 ft Runway heading 262
Runway 08 Runway length 5013 ft Runway width 60 ft
Runway elevation 0 ft Runway displaced threshold 0 ft Runway heading 90
Runway 26 Runway length 5013 ft Runway width 60 ft
Runway elevation 0 ft Runway displaced threshold 0 ft Runway heading 270

 AIRPORT FREQUENCIES
Type ATIS Name ATIS Frequency 135.575 MHZ
Type AWOS Name AWOS 3 Frequency 135.575 MHZ
Type CNTR Name DENVER CNT Frequency 128.65 MHZ
Type CTAF Name CTAF Frequency 119.8 MHZ
Type GCCD Name GND/CLNC D Frequency 121.8 MHZ
Type MISC Name EAGLES NES Frequency 41.75 MHZ
Type RDO Name DENVER RDO Frequency 122.2 MHZ
Type TWR Name TWR Frequency 119.8 MHZ

 AIRPORT NEAR NAVIGATION AIDS
Type VOR-DME Name Snow Frequency 109200 KHZ